createdAt,value
2022-12-06T00:04:35.515Z,17.00
2022-12-06T00:09:40.267Z,15.07
2022-12-06T00:14:43.059Z,17.40
2022-12-06T00:19:45.576Z,18.20
2022-12-06T00:24:47.935Z,17.33
2022-12-06T00:29:50.615Z,17.80
2022-12-06T00:34:52.946Z,15.63
2022-12-06T00:39:55.360Z,16.57
2022-12-06T00:44:57.721Z,17.17
2022-12-06T00:50:00.465Z,17.33
2022-12-06T00:55:04.034Z,16.30
2022-12-06T01:00:07.433Z,17.57
2022-12-06T01:05:10.511Z,17.07
2022-12-06T01:10:12.880Z,17.60
2022-12-06T01:15:15.691Z,17.90
2022-12-06T01:20:20.236Z,17.10
2022-12-06T01:25:25.891Z,18.97
2022-12-06T01:30:29.581Z,18.97
2022-12-06T01:35:32.027Z,17.97
2022-12-06T01:40:43.755Z,17.73
2022-12-06T01:45:46.404Z,17.37
2022-12-06T01:50:49.759Z,16.43
2022-12-06T01:55:54.437Z,16.33
2022-12-06T02:00:56.817Z,17.67
2022-12-06T02:06:01.106Z,16.30
2022-12-06T02:11:04.817Z,20.03
2022-12-06T02:16:39.284Z,16.43
2022-12-06T02:21:51.279Z,16.43
2022-12-06T02:27:28.412Z,18.63
2022-12-06T02:32:42.313Z,17.03
2022-12-06T02:37:52.743Z,20.40
2022-12-06T02:43:01.575Z,20.60
2022-12-06T02:48:07.631Z,18.10
2022-12-06T02:53:14.012Z,19.97
2022-12-06T02:58:16.530Z,20.63
2022-12-06T03:03:46.472Z,19.17
2022-12-06T03:08:59.893Z,21.00
2022-12-06T03:14:14.757Z,18.27
2022-12-06T03:19:25.393Z,21.27
2022-12-06T03:24:30.212Z,18.83
2022-12-06T03:29:35.231Z,17.97
2022-12-06T03:34:44.069Z,18.37
2022-12-06T03:40:18.327Z,16.00
2022-12-06T03:45:24.687Z,16.50
2022-12-06T03:50:41.089Z,17.53
2022-12-06T03:55:43.503Z,15.83
2022-12-06T04:00:46.477Z,16.30
2022-12-06T04:05:48.891Z,17.00
2022-12-06T04:10:52.726Z,17.87
2022-12-06T04:15:59.235Z,17.40
2022-12-06T04:21:22.614Z,18.10
2022-12-06T04:26:26.598Z,17.73
2022-12-06T04:31:47.581Z,20.37
2022-12-06T04:37:08.685Z,18.17
2022-12-06T04:42:31.546Z,20.77
2022-12-06T04:47:33.898Z,19.20
2022-12-06T04:52:36.574Z,17.23
2022-12-06T04:57:38.947Z,18.43
2022-12-06T05:02:41.509Z,21.70
2022-12-06T05:07:43.926Z,17.70
2022-12-06T05:12:46.319Z,18.20
2022-12-06T05:17:49.234Z,18.17
2022-12-06T05:22:52.287Z,18.90
2022-12-06T05:27:54.715Z,21.17
2022-12-06T05:32:57.268Z,21.83
2022-12-06T05:37:59.653Z,39.47
2022-12-06T05:43:02.638Z,32.60
2022-12-06T05:48:06.629Z,24.50
2022-12-06T05:53:10.077Z,26.83
2022-12-06T05:58:13.993Z,28.53
2022-12-06T06:03:17.622Z,30.47
2022-12-06T06:08:20.221Z,32.73
2022-12-06T06:13:22.961Z,29.77
2022-12-06T06:18:26.051Z,24.87
2022-12-06T06:23:29.443Z,25.10
2022-12-06T06:28:31.834Z,21.80
2022-12-06T06:33:34.865Z,24.60
2022-12-06T06:38:37.802Z,20.83
2022-12-06T06:43:40.807Z,22.70
2022-12-06T06:48:43.497Z,21.07
2022-12-06T06:53:45.989Z,19.63
2022-12-06T06:58:48.599Z,19.27
2022-12-06T07:03:51.897Z,21.23
2022-12-06T07:08:54.393Z,18.97
2022-12-06T07:13:56.723Z,19.47
2022-12-06T07:18:59.074Z,19.90
2022-12-06T07:24:01.580Z,21.07
2022-12-06T07:29:05.132Z,22.47
2022-12-06T07:34:07.612Z,22.33
2022-12-06T07:39:14.969Z,20.40
2022-12-06T07:44:37.900Z,25.60
2022-12-06T07:49:40.316Z,26.10
2022-12-06T07:54:43.043Z,23.90
2022-12-06T07:59:47.483Z,24.90
2022-12-06T08:04:50.375Z,32.10
2022-12-06T08:09:53.502Z,32.47
2022-12-06T08:14:59.575Z,36.97
2022-12-06T08:20:02.894Z,48.03
2022-12-06T08:25:06.840Z,52.97
2022-12-06T08:30:09.488Z,72.83
2022-12-06T08:35:11.975Z,50.60
2022-12-06T08:40:15.457Z,36.63
2022-12-06T08:45:17.974Z,41.70
2022-12-06T08:50:20.346Z,30.90
2022-12-06T08:55:23.175Z,40.83
2022-12-06T09:00:28.799Z,45.50
2022-12-06T09:05:35.464Z,62.33
2022-12-06T09:10:38.768Z,101.10
2022-12-06T09:15:41.160Z,57.97
2022-12-06T09:20:45.740Z,35.60
2022-12-06T09:25:48.803Z,25.57
2022-12-06T09:30:51.186Z,25.87
2022-12-06T09:35:53.698Z,27.37
2022-12-06T09:41:24.902Z,25.57
2022-12-06T09:46:58.459Z,26.13
2022-12-06T09:52:27.585Z,22.33
2022-12-06T09:57:50.667Z,25.33
2022-12-06T10:03:27.044Z,21.73
2022-12-06T10:08:51.262Z,19.77
2022-12-06T10:14:25.056Z,24.90
2022-12-06T10:19:56.729Z,19.47
2022-12-06T10:25:12.385Z,25.80
2022-12-06T10:30:18.785Z,24.33
2022-12-06T10:35:32.532Z,24.57
2022-12-06T10:40:41.069Z,20.70
2022-12-06T10:46:14.314Z,21.43
2022-12-06T10:51:23.978Z,22.37
2022-12-06T10:56:43.797Z,24.77
2022-12-06T11:01:52.237Z,22.90
2022-12-06T11:07:08.663Z,22.77
2022-12-06T11:12:35.296Z,24.73
2022-12-06T11:17:43.258Z,22.27
2022-12-06T11:23:12.598Z,28.43
2022-12-06T11:28:40.344Z,27.77
2022-12-06T11:33:43.201Z,24.13
2022-12-06T11:38:46.596Z,16.93
2022-12-06T11:43:49.798Z,15.67
2022-12-06T11:48:53.141Z,14.60
2022-12-06T11:54:09.881Z,14.97
2022-12-06T11:59:31.024Z,12.93
2022-12-06T12:04:40.575Z,12.90
2022-12-06T12:09:56.539Z,12.63
2022-12-06T12:15:00.720Z,19.37
2022-12-06T12:20:08.546Z,13.17
2022-12-06T12:25:27.785Z,9.53
2022-12-06T12:30:39.281Z,10.43
2022-12-06T12:35:46.399Z,9.20
2022-12-06T12:40:59.838Z,9.50
2022-12-06T12:46:04.661Z,9.90
2022-12-06T12:51:26.353Z,8.97
2022-12-06T12:56:32.744Z,8.43
2022-12-06T13:02:11.083Z,7.30
2022-12-06T13:07:30.111Z,7.90
2022-12-06T13:12:41.151Z,7.70
2022-12-06T13:17:49.268Z,8.07
2022-12-06T13:22:56.040Z,9.47
2022-12-06T13:28:05.612Z,22.23
2022-12-06T13:33:22.252Z,9.30
2022-12-06T13:38:30.944Z,7.60
2022-12-06T13:43:39.280Z,8.40
2022-12-06T13:48:59.151Z,12.73
2022-12-06T13:54:04.927Z,7.97
2022-12-06T13:59:15.114Z,6.23
2022-12-06T14:09:44.781Z,6.30
2022-12-06T14:15:06.205Z,7.67
2022-12-06T14:25:41.508Z,7.20
2022-12-06T14:30:44.543Z,7.10
2022-12-06T14:35:54.524Z,9.10
2022-12-06T14:41:23.265Z,10.73
2022-12-06T14:46:26.906Z,9.10
2022-12-06T14:51:42.784Z,9.57
2022-12-06T14:56:45.667Z,9.23
2022-12-06T15:01:50.801Z,8.73
2022-12-06T15:06:56.577Z,6.30
2022-12-06T15:12:42.187Z,7.17
2022-12-06T15:17:50.345Z,6.70
2022-12-06T15:22:54.117Z,8.80
2022-12-06T15:27:56.833Z,9.07
2022-12-06T15:33:25.348Z,8.67
2022-12-06T15:38:28.116Z,20.17
2022-12-06T15:43:35.675Z,18.20
2022-12-06T15:48:38.262Z,12.37
2022-12-06T15:53:50.252Z,14.03
2022-12-06T15:58:57.068Z,18.77
2022-12-06T16:03:59.893Z,11.70
2022-12-06T16:09:02.885Z,9.73
2022-12-06T16:14:07.259Z,11.13
2022-12-06T16:19:09.855Z,10.70
2022-12-06T16:24:14.456Z,11.70
2022-12-06T16:29:21.073Z,10.50
2022-12-06T16:41:59.361Z,11.87
2022-12-06T16:47:02.292Z,10.90
2022-12-06T16:52:07.372Z,9.93
2022-12-06T16:57:14.051Z,11.30
2022-12-06T17:02:32.202Z,14.03
2022-12-06T17:07:40.961Z,15.00
2022-12-06T17:12:44.605Z,13.27
2022-12-06T17:17:48.116Z,12.80
2022-12-06T17:22:51.152Z,11.43
2022-12-06T17:31:01.739Z,11.23
2022-12-06T17:36:09.136Z,12.87
2022-12-06T17:41:45.844Z,13.77
2022-12-06T17:46:52.710Z,12.03
2022-12-06T17:51:55.453Z,12.20
2022-12-06T17:56:57.982Z,13.80
2022-12-06T18:02:17.994Z,13.23
2022-12-06T18:07:21.228Z,12.93
2022-12-06T18:12:23.869Z,14.50
2022-12-06T18:17:26.295Z,15.67
2022-12-06T18:22:29.299Z,15.73
2022-12-06T18:27:34.831Z,18.40
2022-12-06T18:32:37.282Z,19.47
2022-12-06T18:37:39.864Z,20.47
2022-12-06T18:42:42.261Z,21.80
2022-12-06T18:47:47.641Z,20.40
2022-12-06T18:52:50.111Z,17.87
2022-12-06T18:57:53.125Z,16.93
2022-12-06T19:02:55.645Z,15.63
2022-12-06T19:07:58.107Z,17.37
2022-12-06T19:13:04.130Z,17.53
2022-12-06T19:18:08.348Z,17.63
2022-12-06T19:23:10.774Z,17.07
2022-12-06T19:28:13.146Z,16.97
2022-12-06T19:33:16.620Z,15.60
2022-12-06T19:38:19.378Z,17.60
2022-12-06T19:43:45.516Z,18.97
2022-12-06T19:48:51.215Z,19.00
2022-12-06T19:53:56.011Z,17.27
2022-12-06T19:59:02.660Z,14.80
2022-12-06T20:04:06.522Z,14.17
2022-12-06T20:09:12.722Z,14.70
2022-12-06T20:14:18.218Z,16.00
2022-12-06T20:19:21.540Z,15.80
2022-12-06T20:24:25.571Z,13.30
2022-12-06T20:29:30.031Z,13.43
2022-12-06T20:34:34.750Z,12.60
2022-12-06T20:39:37.703Z,13.23
2022-12-06T20:44:40.814Z,13.07
2022-12-06T20:49:43.410Z,14.70
2022-12-06T20:54:49.047Z,13.83
2022-12-06T20:59:51.735Z,13.93
2022-12-06T21:04:55.078Z,14.80
2022-12-06T21:09:58.665Z,14.03
2022-12-06T21:15:02.504Z,12.27
2022-12-06T21:20:05.731Z,13.43
2022-12-06T21:25:09.152Z,12.37
2022-12-06T21:30:12.073Z,13.00
2022-12-06T21:35:15.380Z,13.43
2022-12-06T21:40:17.916Z,14.47
2022-12-06T21:45:20.828Z,14.57
2022-12-06T21:50:23.607Z,15.63
2022-12-06T21:55:26.685Z,16.10
2022-12-06T22:00:30.144Z,19.13
2022-12-06T22:05:32.541Z,23.80
2022-12-06T22:10:39.284Z,19.60
2022-12-06T22:15:41.791Z,18.80
2022-12-06T22:20:44.410Z,18.23
2022-12-06T22:25:47.742Z,19.30
2022-12-06T22:30:50.317Z,19.23
2022-12-06T22:35:52.748Z,20.77
2022-12-06T22:41:00.009Z,21.33
2022-12-06T22:46:08.266Z,20.67
2022-12-06T22:51:13.366Z,22.33
2022-12-06T22:56:16.243Z,21.87
2022-12-06T23:01:20.579Z,22.33
2022-12-06T23:06:25.544Z,22.53
2022-12-06T23:11:30.585Z,22.33
2022-12-06T23:16:36.301Z,24.40
2022-12-06T23:21:40.850Z,24.50
2022-12-06T23:26:53.133Z,23.57
2022-12-06T23:31:57.303Z,25.63
2022-12-06T23:36:59.782Z,24.83
2022-12-06T23:42:02.743Z,24.60
2022-12-06T23:47:05.650Z,24.97
2022-12-06T23:52:08.808Z,25.17
2022-12-06T23:57:14.831Z,24.30
